Historyczne dane pomiarowe

Dodano dane terminowe – wersja testowa.

Dane z okresu 1951-2019

Wersja bazy: 1.34 [2019-03-16, lista zmian], aktualizacja planowana na 2019-04-15

Dane meteo z obszaru Polski uzyskane na podstawie danych udostępnionych przez Instytut Meteorologii i Gospodarki Wodnej – Państwowy Instytut Badawczy.

 

Wybierz Datę:    

       

TemperaturaWilgotnośćZachmurzenieWiatrCiśnienieWidzialnośćZjawiska
 Data    tng td wb rh cc ccl cl cm ch dir g1 g2 mslp ppp      
1999-08-07 00:00:00 10.0--- 5.9 7.976wxwx6wx--- 800.8 0.0---wx
1999-08-07 01:00:00 10.1--- 6.2 8.178wxwx5wx--- 800.5----wx
1999-08-07 02:00:00 10.7--- 5.0 7.868wxwxwx4wx--- 800.2----wx
1999-08-07 03:00:00 10.6--- 5.1 7.869wxwxwx3wx--- 800.0----wx
1999-08-07 04:00:00 10.8--- 5.0 7.867wxwxwxwxwx3wx--- 799.9----wx
1999-08-07 05:00:00 10.9--- 4.5 7.765wxwxwxwxwx4wx--- 799.6----wx
1999-08-07 06:00:00 11.2--- 6.5 8.873wxwxwxwx2wx--- 799.7 0.0---wx
1999-08-07 07:00:00 11.9--- 7.4 9.574wxwxwxwx2wx--- 799.8----wx
1999-08-07 08:00:00 13.0--- 8.1 10.372wxwxwx2wx--- 800.1----wx
1999-08-07 09:00:00 13.8--- 9.3 11.274wxwxwx2wx--- 800.2----wx
1999-08-07 10:00:00 14.4--- 10.2 12.076wxwxwx2wx--- 800.2----wx
1999-08-07 11:00:00 14.2--- 10.8 12.280wxwxwx4wx--- 800.0----wx
1999-08-07 12:00:00 15.2--- 11.4 13.079wxwxwx1wx--- 799.9 0.0---wx
1999-08-07 13:00:00 15.8--- 12.9 14.083wxwxwx2wx--- 799.8----wx
1999-08-07 14:00:00 14.8--- 11.7 12.981wxwxwx3wx--- 799.4----wx
1999-08-07 15:00:00 14.0--- 12.5 13.191wxwxwx2wx--- 799.3----wx
1999-08-07 16:00:00 13.8--- 12.7 13.193wxwxwx3wx--- 799.0----wx
1999-08-07 17:00:00 12.8--- 12.6 12.799wxwxwx3wx--- 799.0----wx
1999-08-07 18:00:00 12.4--- 12.4 12.4100wxwxwx6wx--- 798.8 0.0---wxw1
1999-08-07 19:00:00 11.8--- 11.8 11.8100wxwx6wx--- 799.1----wxw1
1999-08-07 20:00:00 12.0--- 12.0 12.0100wxwx2wx--- 799.7----wxw1
1999-08-07 21:00:00 12.2--- 12.2 12.2100wxwx4wx--- 798.9----wxw1
1999-08-07 22:00:00 11.8--- 11.8 11.8100wxwx5wx--- 798.3----wxw1
1999-08-07 23:00:00 11.1--- 10.3 10.795wxwxwx6wx--- 797.9----wx

 

Źródłem pochodzenia danych jest Instytut Meteorologii i Gospodarki Wodnej – Państwowy Instytut Badawczy. Dane Instytutu Meteorologii i Gospodarki Wodnej – Państwowego Instytutu Badawczego zostały przetworzone.

Dane źródłowe można odnaleźć na stronie https://dane.imgw.pl